Time;durP1;ratioP1;P1;durP2;ratioP2;P2;SDS_P1;SDS_P2;PMS_P1;PMS_P2;Temp;Humidity;BMP_temperature;BMP_pressure;BME280_temperature;BME280_humidity;BME280_pressure;Samples;Min_cycle;Max_cycle;Signal;HPM_P1;HPM_P2
2023/03/17 00:00:18;;;;;;;17.77;8.47;;;;;;;-0.69;100.00;96381.56;5057707;28;20505;-75
2023/03/17 00:02:47;;;;;;;9.37;6.90;;;;;;;-0.65;100.00;96375.63;5072162;28;20444;-74
2023/03/17 00:05:26;;;;;;;13.00;6.60;;;;;;;-0.66;100.00;96373.28;5063565;28;20465;-73
2023/03/17 00:07:54;;;;;;;9.60;7.43;;;;;;;-0.71;100.00;96371.44;5068003;28;20538;-73
2023/03/17 00:10:24;;;;;;;7.33;6.63;;;;;;;-0.75;100.00;96378.19;5070953;28;20845;-74
2023/03/17 00:12:52;;;;;;;8.83;6.70;;;;;;;-1.05;100.00;96344.31;5070635;28;20444;-74
2023/03/17 00:15:22;;;;;;;6.40;5.80;;;;;;;-1.26;100.00;96336.38;5070826;28;20464;-74
2023/03/17 00:17:49;;;;;;;6.77;5.00;;;;;;;-1.22;100.00;96332.25;5070719;28;20436;-74
2023/03/17 00:20:34;;;;;;;6.30;5.73;;;;;;;-1.17;100.00;96344.50;5068572;28;20471;-74
2023/03/17 00:23:04;;;;;;;9.90;6.80;;;;;;;-0.95;100.00;96367.69;5054151;28;20457;-74
2023/03/17 00:25:33;;;;;;;8.47;6.53;;;;;;;-0.91;100.00;96376.53;5070037;28;20469;-73
2023/03/17 00:28:02;;;;;;;11.80;7.27;;;;;;;-0.87;100.00;96380.19;5070637;28;20428;-73
2023/03/17 00:30:28;;;;;;;9.17;5.90;;;;;;;-1.08;100.00;96344.78;5070606;28;20498;-72
2023/03/17 00:32:57;;;;;;;7.17;5.70;;;;;;;-1.16;100.00;96360.81;5054008;28;20570;-72
2023/03/17 00:35:27;;;;;;;8.73;5.87;;;;;;;-1.13;100.00;96340.34;5070431;28;20440;-72
2023/03/17 00:37:56;;;;;;;8.43;5.80;;;;;;;-0.94;100.00;96358.88;5070817;28;20435;-72
2023/03/17 00:40:28;;;;;;;11.33;6.40;;;;;;;-1.08;100.00;96342.19;5070456;28;20531;-74
2023/03/17 00:42:57;;;;;;;7.70;6.43;;;;;;;-0.92;100.00;96354.22;5070589;28;21074;-73
2023/03/17 00:45:25;;;;;;;11.60;5.77;;;;;;;-1.06;100.00;96332.38;5071676;28;20456;-73
2023/03/17 00:47:54;;;;;;;8.23;6.50;;;;;;;-1.21;100.00;96331.22;5070368;28;20432;-73
2023/03/17 00:50:24;;;;;;;9.07;6.00;;;;;;;-1.32;100.00;96315.88;5050514;28;20772;-73
2023/03/17 00:52:52;;;;;;;8.10;6.00;;;;;;;-1.26;100.00;96338.97;5064314;28;20452;-72
2023/03/17 00:55:20;;;;;;;11.30;6.33;;;;;;;-1.49;100.00;96296.06;5070313;28;20480;-73
2023/03/17 00:57:48;;;;;;;6.17;5.57;;;;;;;-1.20;100.00;96329.44;5053677;28;20479;-72
2023/03/17 01:00:20;;;;;;;10.40;6.97;;;;;;;-1.27;100.00;96329.63;5087196;28;20495;-72
2023/03/17 01:02:49;;;;;;;6.00;4.90;;;;;;;-1.43;100.00;96291.69;5053830;28;20460;-73
2023/03/17 01:05:16;;;;;;;5.57;4.47;;;;;;;-1.21;100.00;96315.66;5053600;28;20461;-73
2023/03/17 01:07:47;;;;;;;9.87;6.13;;;;;;;-1.24;100.00;96315.38;5071570;28;20519;-72
2023/03/17 01:10:17;;;;;;;7.20;6.30;;;;;;;-1.45;100.00;96298.16;5053731;28;21002;-72
2023/03/17 01:12:45;;;;;;;9.07;5.73;;;;;;;-1.37;100.00;96314.00;5053458;28;20455;-72
2023/03/17 01:15:13;;;;;;;7.60;5.03;;;;;;;-1.43;100.00;96307.25;5070180;28;20445;-72
2023/03/17 01:17:40;;;;;;;7.00;4.57;;;;;;;-1.38;100.00;96298.72;5070077;28;20544;-72
2023/03/17 01:20:15;;;;;;;8.63;5.83;;;;;;;-1.42;100.00;96279.50;5056894;28;20489;-72
2023/03/17 01:22:42;;;;;;;6.87;5.83;;;;;;;-1.28;100.00;96304.75;5087960;28;20484;-72
2023/03/17 01:25:10;;;;;;;10.40;6.23;;;;;;;-1.22;100.00;96297.75;5073506;28;20451;-72
2023/03/17 01:27:38;;;;;;;11.53;7.17;;;;;;;-1.28;100.00;96289.19;5071671;28;20427;-72
2023/03/17 01:30:16;;;;;;;7.10;5.43;;;;;;;-1.39;100.00;96259.03;5070001;28;20437;-72
2023/03/17 01:32:43;;;;;;;6.03;5.33;;;;;;;-1.40;100.00;96267.06;5070026;28;20471;-72
2023/03/17 01:35:10;;;;;;;7.10;6.07;;;;;;;-1.22;100.00;96282.19;5069799;28;20456;-72
2023/03/17 01:37:37;;;;;;;8.70;6.60;;;;;;;-1.21;100.00;96289.72;5071303;28;20491;-72
2023/03/17 01:40:05;;;;;;;7.97;5.23;;;;;;;-1.28;100.00;96278.81;5073945;28;20439;-71
2023/03/17 01:42:32;;;;;;;7.70;5.80;;;;;;;-1.29;100.00;96260.91;5073707;28;20463;-71
2023/03/17 01:45:06;;;;;;;9.87;6.40;;;;;;;-1.24;100.00;96266.91;5059918;28;20489;-72
2023/03/17 01:47:33;;;;;;;8.80;6.80;;;;;;;-1.35;100.00;96241.16;5093862;28;20431;-73
2023/03/17 01:50:06;;;;;;;8.33;5.23;;;;;;;-1.26;100.00;96287.13;5093712;28;20500;-73
2023/03/17 01:52:38;;;;;;;7.47;6.43;;;;;;;-1.43;100.00;96247.63;5093707;28;20504;-73
2023/03/17 01:55:11;;;;;;;8.27;5.40;;;;;;;-1.15;100.00;96271.59;5093649;28;20497;-72
2023/03/17 01:57:58;;;;;;;7.87;5.93;;;;;;;-1.15;100.00;96282.75;5079601;28;20443;-73
2023/03/17 02:00:25;;;;;;;10.60;6.47;;;;;;;-1.23;100.00;96259.91;5056927;28;20855;-72
2023/03/17 02:02:55;;;;;;;9.53;6.40;;;;;;;-1.40;100.00;96230.78;5074523;28;20443;-72
2023/03/17 02:05:28;;;;;;;7.20;5.30;;;;;;;-1.26;100.00;96268.19;5073189;28;20542;-72
2023/03/17 02:07:55;;;;;;;7.00;5.83;;;;;;;-1.55;100.00;96229.66;5078267;28;20435;-72
2023/03/17 02:10:28;;;;;;;6.83;5.57;;;;;;;-1.29;100.00;96268.69;5080841;28;20910;-73
2023/03/17 02:13:02;;;;;;;7.13;5.87;;;;;;;-1.22;100.00;96277.00;5066698;28;20824;-73
2023/03/17 02:15:45;;;;;;;5.70;5.20;;;;;;;-1.14;100.00;96273.94;5066106;28;20432;-73
2023/03/17 02:18:12;;;;;;;5.77;5.20;;;;;;;-1.15;100.00;96267.19;5064142;28;21000;-73
2023/03/17 02:20:39;;;;;;;6.00;5.40;;;;;;;-1.15;100.00;96267.19;5070483;28;20424;-74
2023/03/17 02:23:07;;;;;;;7.63;5.13;;;;;;;-1.64;100.00;96210.44;5076460;28;20989;-74
2023/03/17 02:25:35;;;;;;;6.20;5.57;;;;;;;-1.56;100.00;96240.28;5094348;28;20494;-74
2023/03/17 02:28:09;;;;;;;7.70;6.20;;;;;;;-1.74;100.00;96227.72;5093112;28;20471;-74
2023/03/17 02:30:36;;;;;;;5.30;4.13;;;;;;;-1.71;100.00;96225.44;5092951;28;20439;-74
2023/03/17 02:33:03;;;;;;;6.10;5.50;;;;;;;-1.55;100.00;96258.19;5076142;28;21024;-74
2023/03/17 02:35:30;;;;;;;9.80;6.03;;;;;;;-1.60;100.00;96244.44;5092678;28;20439;-74
2023/03/17 02:37:57;;;;;;;6.00;5.40;;;;;;;-1.83;100.00;96209.28;5092934;28;20837;-74
2023/03/17 02:40:27;;;;;;;5.07;4.50;;;;;;;-1.54;100.00;96241.59;5076718;28;20440;-73
2023/03/17 02:42:55;;;;;;;7.80;6.73;;;;;;;-1.74;100.00;96212.97;5082357;28;20448;-73
2023/03/17 02:45:27;;;;;;;9.40;6.30;;;;;;;-1.43;100.00;96231.28;5078317;28;20904;-74
2023/03/17 02:47:54;;;;;;;7.90;5.93;;;;;;;-1.11;100.00;96257.88;5092180;28;20527;-74
2023/03/17 02:50:24;;;;;;;7.17;5.43;;;;;;;-1.17;100.00;96251.13;5072863;28;20436;-74
2023/03/17 02:52:51;;;;;;;9.83;6.07;;;;;;;-1.46;100.00;96213.66;5072152;28;20555;-74
2023/03/17 02:55:18;;;;;;;6.53;5.87;;;;;;;-1.53;100.00;96206.09;5072364;28;20933;-74
2023/03/17 02:57:45;;;;;;;6.80;5.57;;;;;;;-1.71;100.00;96209.13;5072410;28;20448;-74
2023/03/17 03:00:13;;;;;;;7.43;5.30;;;;;;;-1.96;100.00;96171.66;5072851;28;20436;-74
2023/03/17 03:02:40;;;;;;;10.30;6.10;;;;;;;-1.59;100.00;96230.44;5072788;28;20798;-74
2023/03/17 03:05:08;;;;;;;8.00;7.03;;;;;;;-1.65;100.00;96223.66;5073409;28;20452;-74
2023/03/17 03:07:35;;;;;;;7.10;5.37;;;;;;;-1.87;100.00;96182.31;5053116;28;20498;-74
2023/03/17 03:10:02;;;;;;;5.30;4.80;;;;;;;-1.63;100.00;96216.41;5072065;28;20436;-75
2023/03/17 03:12:29;;;;;;;6.07;5.40;;;;;;;-1.59;100.00;96210.47;5073182;28;20798;-74
2023/03/17 03:14:56;;;;;;;8.83;5.83;;;;;;;-1.83;100.00;96181.59;5052107;28;20443;-75
2023/03/17 03:17:25;;;;;;;11.23;5.53;;;;;;;-1.50;100.00;96215.94;5071912;28;20445;-75
2023/03/17 03:19:52;;;;;;;5.87;5.10;;;;;;;-1.38;100.00;96220.94;5080848;28;20448;-75
2023/03/17 03:22:19;;;;;;;7.10;6.37;;;;;;;-1.34;100.00;96217.56;5071749;28;20438;-74
2023/03/17 03:24:45;;;;;;;6.87;5.17;;;;;;;-1.28;100.00;96234.72;5054999;28;20478;-74
2023/03/17 03:27:12;;;;;;;6.40;5.27;;;;;;;-1.36;100.00;96224.81;5055041;28;20527;-74
2023/03/17 03:29:38;;;;;;;6.63;6.00;;;;;;;-1.58;100.00;96206.06;5071682;28;20446;-74
2023/03/17 03:32:06;;;;;;;6.83;5.70;;;;;;;-1.74;100.00;96196.63;5061095;28;20543;-74
2023/03/17 03:34:33;;;;;;;7.67;5.70;;;;;;;-1.85;100.00;96186.25;5091667;28;20439;-74
2023/03/17 03:37:00;;;;;;;10.07;6.00;;;;;;;-1.79;100.00;96225.91;5091850;28;20518;-74
2023/03/17 03:39:26;;;;;;;6.27;5.67;;;;;;;-1.72;100.00;96225.69;5074961;28;20534;-74
2023/03/17 03:41:56;;;;;;;5.67;4.63;;;;;;;-1.63;100.00;96234.53;5091597;28;20530;-74
2023/03/17 03:44:23;;;;;;;8.93;5.40;;;;;;;-1.86;100.00;96187.28;5091436;28;20582;-74
2023/03/17 03:46:50;;;;;;;8.23;6.30;;;;;;;-1.90;100.00;96167.28;5091786;28;20442;-74
2023/03/17 03:49:17;;;;;;;7.10;5.70;;;;;;;-1.76;100.00;96180.56;5091439;28;20820;-74
2023/03/17 03:51:44;;;;;;;6.10;5.43;;;;;;;-1.86;100.00;96168.34;5070607;28;20482;-74
2023/03/17 03:54:10;;;;;;;6.50;5.80;;;;;;;-1.79;100.00;96172.25;5071240;28;20558;-74
2023/03/17 03:56:37;;;;;;;8.67;5.77;;;;;;;-1.64;100.00;96183.75;5054562;28;20494;-74
2023/03/17 03:59:04;;;;;;;8.30;5.90;;;;;;;-1.77;100.00;96192.75;5070941;28;20494;-74
2023/03/17 04:01:30;;;;;;;5.70;5.17;;;;;;;-1.76;100.00;96211.66;5070261;28;20526;-74
2023/03/17 04:03:57;;;;;;;10.10;6.03;;;;;;;-1.73;100.00;96206.00;5070906;28;20453;-73
2023/03/17 04:06:24;;;;;;;8.60;5.77;;;;;;;-1.83;100.00;96210.06;5070791;28;20558;-73
2023/03/17 04:08:50;;;;;;;7.07;6.20;;;;;;;-1.86;100.00;96170.94;5070971;28;20483;-73
2023/03/17 04:11:17;;;;;;;6.90;4.97;;;;;;;-1.78;100.00;96196.38;5070712;28;20528;-73
2023/03/17 04:13:44;;;;;;;5.57;5.03;;;;;;;-1.90;100.00;96191.38;5054233;28;20456;-73
2023/03/17 04:16:11;;;;;;;6.47;4.67;;;;;;;-2.07;100.00;96157.09;5070693;28;20432;-73
2023/03/17 04:18:37;;;;;;;7.77;5.90;;;;;;;-1.87;100.00;96183.13;5071991;28;20827;-73
2023/03/17 04:21:05;;;;;;;6.80;5.57;;;;;;;-1.76;100.00;96183.94;5071948;28;20982;-72
2023/03/17 04:23:31;;;;;;;8.10;5.27;;;;;;;-1.89;100.00;96167.03;5083193;28;21062;-72
2023/03/17 04:25:58;;;;;;;6.93;5.63;;;;;;;-1.81;100.00;96179.50;5071339;28;20506;-73
2023/03/17 04:28:25;;;;;;;10.27;5.37;;;;;;;-1.68;100.00;96196.44;5070747;28;20425;-74
2023/03/17 04:30:51;;;;;;;6.43;5.70;;;;;;;-1.75;100.00;96185.50;5070434;28;20444;-74
2023/03/17 04:33:19;;;;;;;7.93;6.07;;;;;;;-1.90;100.00;96156.91;5070702;28;20471;-74
2023/03/17 04:35:45;;;;;;;7.47;5.60;;;;;;;-1.75;100.00;96172.53;5054093;28;20808;-74
2023/03/17 04:38:12;;;;;;;7.00;5.73;;;;;;;-1.84;100.00;96172.25;5053944;28;20436;-73
2023/03/17 04:40:39;;;;;;;7.97;6.47;;;;;;;-1.87;100.00;96154.63;5071999;28;20428;-74
2023/03/17 04:43:06;;;;;;;6.23;5.63;;;;;;;-1.85;100.00;96169.91;5070348;28;20492;-73
2023/03/17 04:45:33;;;;;;;6.47;5.70;;;;;;;-1.67;100.00;96171.28;5070322;28;20460;-74
2023/03/17 04:47:59;;;;;;;5.87;5.37;;;;;;;-1.64;100.00;96194.09;5053876;28;20444;-74
2023/03/17 04:50:26;;;;;;;8.77;5.93;;;;;;;-1.67;100.00;96187.63;5070550;28;20420;-72
2023/03/17 04:52:53;;;;;;;7.80;6.17;;;;;;;-1.58;100.00;96203.47;5070388;28;20562;-74
2023/03/17 04:55:20;;;;;;;9.77;5.50;;;;;;;-1.66;100.00;96206.53;5071666;28;20785;-73
2023/03/17 04:57:47;;;;;;;12.03;5.83;;;;;;;-1.70;100.00;96219.22;5083899;28;20792;-73
2023/03/17 05:00:14;;;;;;;7.10;5.73;;;;;;;-1.62;100.00;96210.19;5090789;28;20791;-73
2023/03/17 05:02:44;;;;;;;6.93;6.23;;;;;;;-1.86;100.00;96183.91;5090483;28;20518;-73
2023/03/17 05:05:11;;;;;;;20.40;17.87;;;;;;;-2.15;100.00;96135.00;5073650;28;20460;-73
2023/03/17 05:07:39;;;;;;;18.40;15.17;;;;;;;-2.08;100.00;96158.88;5091712;28;20481;-73
2023/03/17 05:10:06;;;;;;;34.30;27.20;;;;;;;-2.05;100.00;96157.59;5083594;28;20467;-73
2023/03/17 05:12:33;;;;;;;21.10;16.60;;;;;;;-1.97;100.00;96171.91;5056468;28;20520;-73
2023/03/17 05:14:59;;;;;;;15.80;12.70;;;;;;;-1.85;100.00;96196.59;5057630;28;20428;-73
2023/03/17 05:17:26;;;;;;;92.77;48.00;;;;;;;-2.01;100.00;96194.91;5074126;28;20578;-72
2023/03/17 05:19:53;;;;;;;95.00;45.17;;;;;;;-2.07;100.00;96182.97;5072230;28;20431;-73
2023/03/17 05:22:19;;;;;;;45.37;27.97;;;;;;;-2.22;100.00;96159.56;5074004;28;20443;-73
2023/03/17 05:24:46;;;;;;;46.83;29.17;;;;;;;-1.74;100.00;96204.41;5074065;28;20444;-72
2023/03/17 05:27:13;;;;;;;41.17;24.97;;;;;;;-1.94;100.00;96184.34;5075314;28;20519;-73
2023/03/17 05:29:39;;;;;;;30.10;19.33;;;;;;;-1.78;100.00;96193.78;5053934;28;20436;-73
2023/03/17 05:32:06;;;;;;;41.73;27.00;;;;;;;-1.81;100.00;96181.31;5071372;28;20943;-72
2023/03/17 05:34:33;;;;;;;49.30;28.37;;;;;;;-2.04;100.00;96179.09;5057100;28;20535;-73
2023/03/17 05:37:00;;;;;;;36.33;24.00;;;;;;;-1.71;100.00;96211.69;5075053;28;20416;-72
2023/03/17 05:39:26;;;;;;;33.90;19.20;;;;;;;-1.90;100.00;96186.19;5073884;28;20482;-72
2023/03/17 05:41:53;;;;;;;31.60;19.57;;;;;;;-2.06;100.00;96176.00;5076857;28;20777;-73
2023/03/17 05:44:20;;;;;;;32.50;19.53;;;;;;;-2.21;100.00;96169.69;5095252;28;20486;-72
2023/03/17 05:46:47;;;;;;;24.03;16.57;;;;;;;-2.05;100.00;96188.69;5073686;28;20513;-73
2023/03/17 05:49:14;;;;;;;21.37;16.10;;;;;;;-2.26;100.00;96140.41;5074961;28;20428;-73
2023/03/17 05:51:41;;;;;;;31.73;15.83;;;;;;;-1.96;100.00;96186.41;5073657;28;20995;-72
2023/03/17 05:54:07;;;;;;;25.33;18.50;;;;;;;-1.87;100.00;96200.44;5073471;28;20491;-72
2023/03/17 05:56:34;;;;;;;19.83;16.10;;;;;;;-2.05;100.00;96172.38;5073430;28;20458;-73
2023/03/17 05:59:01;;;;;;;26.33;18.40;;;;;;;-2.03;100.00;96193.59;5073453;28;20467;-72
2023/03/17 06:01:28;;;;;;;22.87;15.87;;;;;;;-2.15;100.00;96173.06;5060195;28;20535;-72
2023/03/17 06:03:55;;;;;;;18.80;12.53;;;;;;;-1.96;100.00;96197.56;5074632;28;20822;-72
2023/03/17 06:06:24;;;;;;;12.97;10.87;;;;;;;-1.88;100.00;96191.13;5073100;28;20460;-73
2023/03/17 06:08:51;;;;;;;11.40;9.63;;;;;;;-1.78;100.00;96196.38;5073148;28;20440;-73
2023/03/17 06:11:20;;;;;;;10.20;9.20;;;;;;;-1.82;100.00;96190.91;5073019;28;20464;-72
2023/03/17 06:13:47;;;;;;;15.47;10.60;;;;;;;-1.55;100.00;96190.00;5073167;28;20479;-73
2023/03/17 06:16:14;;;;;;;12.83;9.20;;;;;;;-1.58;100.00;96182.75;5065619;28;20927;-73
2023/03/17 06:18:41;;;;;;;11.80;8.90;;;;;;;-1.85;100.00;96169.91;5093483;28;20518;-73
2023/03/17 06:21:07;;;;;;;7.63;6.83;;;;;;;-1.82;100.00;96174.59;5074397;28;20988;-73
2023/03/17 06:23:35;;;;;;;10.87;7.93;;;;;;;-1.62;100.00;96199.81;5072090;28;20488;-73
2023/03/17 06:26:02;;;;;;;9.83;8.13;;;;;;;-1.72;100.00;96176.47;5056347;28;20510;-73
2023/03/17 06:28:29;;;;;;;11.47;9.20;;;;;;;-1.44;100.00;96209.00;5056362;28;20996;-73
2023/03/17 06:30:56;;;;;;;10.27;7.70;;;;;;;-1.38;100.00;96197.59;5072889;28;20440;-73
2023/03/17 06:33:24;;;;;;;9.47;7.90;;;;;;;-1.38;100.00;96200.19;5056251;28;20475;-72
2023/03/17 06:35:51;;;;;;;8.70;7.80;;;;;;;-1.45;100.00;96186.69;5078996;28;20529;-72
2023/03/17 06:38:19;;;;;;;10.57;8.40;;;;;;;-1.34;100.00;96199.41;5092985;28;20878;-74
2023/03/17 06:40:46;;;;;;;9.67;7.00;;;;;;;-1.38;100.00;96195.00;5076197;28;20443;-73
2023/03/17 06:43:13;;;;;;;16.97;7.17;;;;;;;-1.66;100.00;96162.47;5094132;28;20451;-72
2023/03/17 06:45:40;;;;;;;8.53;7.23;;;;;;;-1.57;100.00;96179.13;5076323;28;20548;-73
2023/03/17 06:48:07;;;;;;;6.90;6.20;;;;;;;-1.60;100.00;96146.72;5093151;28;20458;-73
2023/03/17 06:50:33;;;;;;;7.97;6.83;;;;;;;-1.47;100.00;96150.63;5085641;28;20865;-73
2023/03/17 06:53:00;;;;;;;7.50;6.43;;;;;;;-1.07;100.00;96196.69;5073703;28;20484;-73
2023/03/17 06:55:27;;;;;;;7.70;6.90;;;;;;;-1.09;100.00;96175.38;5072531;28;20454;-73
2023/03/17 06:57:55;;;;;;;13.40;7.70;;;;;;;-0.79;100.00;96202.47;5055841;28;20486;-73
2023/03/17 07:00:21;;;;;;;8.67;7.80;;;;;;;-0.63;100.00;96170.31;5072358;28;20479;-72
2023/03/17 07:02:48;;;;;;;8.47;6.53;;;;;;;-0.24;100.00;96195.78;5071714;28;20460;-72
2023/03/17 07:05:17;;;;;;;8.07;6.07;;;;;;;-0.23;100.00;96158.38;5080860;28;20429;-73
2023/03/17 07:07:44;;;;;;;15.73;7.30;;;;;;;0.12;100.00;96199.88;5078786;28;20527;-72
2023/03/17 07:10:14;;;;;;;8.50;5.20;;;;;;;0.23;100.00;96200.63;5073312;28;20420;-73
2023/03/17 07:12:41;;;;;;;5.23;4.73;;;;;;;0.28;100.00;96172.06;5071827;28;20527;-72
2023/03/17 07:15:09;;;;;;;9.07;4.70;;;;;;;0.38;100.00;96168.63;5082018;28;20448;-73
2023/03/17 07:17:37;;;;;;;4.67;4.27;;;;;;;0.65;100.00;96169.06;5074712;28;20472;-74
2023/03/17 07:20:05;;;;;;;6.30;4.43;;;;;;;0.91;100.00;96177.53;5071692;28;20940;-73
2023/03/17 07:22:32;;;;;;;6.43;4.30;;;;;;;1.02;100.00;96183.47;5071681;28;20440;-73
2023/03/17 07:24:58;;;;;;;4.70;4.00;;;;;;;1.26;100.00;96202.59;5066426;28;20502;-73
2023/03/17 07:27:28;;;;;;;5.63;5.13;;;;;;;1.31;100.00;96183.56;5074952;28;20546;-73
2023/03/17 07:29:54;;;;;;;6.37;4.70;;;;;;;1.12;100.00;96168.56;5083364;28;20947;-74
2023/03/17 07:32:21;;;;;;;10.37;3.93;;;;;;;1.40;100.00;96207.97;5073413;28;20432;-74
2023/03/17 07:34:48;;;;;;;8.33;5.20;;;;;;;1.41;100.00;96197.28;5054921;28;20521;-74
2023/03/17 07:37:16;;;;;;;6.50;5.90;;;;;;;1.34;100.00;96203.88;5078014;28;20423;-73
2023/03/17 07:39:43;;;;;;;11.60;4.60;;;;;;;1.66;100.00;96226.84;5062993;28;20432;-74
2023/03/17 07:42:14;;;;;;;7.27;4.17;;;;;;;1.97;100.00;96228.16;5054941;28;21026;-73
2023/03/17 07:44:40;;;;;;;9.60;4.80;;;;;;;2.05;100.00;96211.94;5071389;28;20444;-74
2023/03/17 07:47:09;;;;;;;8.40;4.13;;;;;;;1.95;100.00;96192.97;5061196;28;20565;-74
2023/03/17 07:49:36;;;;;;;5.57;4.17;;;;;;;2.26;100.00;96233.38;5061296;28;20440;-74
2023/03/17 07:52:09;;;;;;;7.50;5.10;;;;;;;2.43;100.00;96219.16;5055369;28;20523;-74
2023/03/17 07:54:36;;;;;;;5.47;4.97;;;;;;;2.78;100.00;96238.88;5071139;28;20555;-75
2023/03/17 07:57:04;;;;;;;7.83;4.40;;;;;;;2.74;100.00;96232.66;5072533;28;20459;-75
2023/03/17 07:59:31;;;;;;;6.40;4.73;;;;;;;2.94;100.00;96230.59;5072630;28;20436;-75
2023/03/17 08:02:00;;;;;;;4.63;3.20;;;;;;;3.04;100.00;96219.22;5091398;28;20979;-75
2023/03/17 08:04:27;;;;;;;7.37;4.33;;;;;;;2.82;100.00;96198.13;5075990;28;20541;-75
2023/03/17 08:06:54;;;;;;;4.30;3.70;;;;;;;2.89;100.00;96185.47;5062968;28;20541;-75
2023/03/17 08:09:23;;;;;;;5.37;4.23;;;;;;;3.04;100.00;96194.94;5089153;28;20492;-75
2023/03/17 08:11:50;;;;;;;7.40;4.10;;;;;;;3.33;100.00;96224.34;5070955;28;20443;-75
2023/03/17 08:14:17;;;;;;;5.80;4.20;;;;;;;3.29;100.00;96184.16;5073995;28;20501;-75
2023/03/17 08:16:44;;;;;;;5.57;3.70;;;;;;;3.50;100.00;96190.66;5081220;28;20524;-75
2023/03/17 08:19:11;;;;;;;8.83;4.37;;;;;;;3.69;100.00;96184.63;5054196;28;20444;-75
2023/03/17 08:21:37;;;;;;;5.70;4.10;;;;;;;4.02;100.00;96203.75;5072261;28;20421;-75
2023/03/17 08:24:04;;;;;;;5.20;4.10;;;;;;;4.30;100.00;96179.19;5084351;28;20988;-75
2023/03/17 08:26:31;;;;;;;4.97;4.20;;;;;;;4.28;100.00;96183.16;5054160;28;20460;-75
2023/03/17 08:28:58;;;;;;;5.47;3.87;;;;;;;4.54;100.00;96188.69;5054150;28;20476;-75
2023/03/17 08:31:25;;;;;;;4.50;3.70;;;;;;;4.74;100.00;96207.41;5072381;28;20420;-75
2023/03/17 08:33:53;;;;;;;4.73;4.13;;;;;;;4.39;100.00;96166.19;5070575;28;20543;-76
2023/03/17 08:36:20;;;;;;;5.27;3.67;;;;;;;4.65;100.00;96190.81;5070598;28;20487;-76
2023/03/17 08:38:47;;;;;;;3.87;3.57;;;;;;;4.54;100.00;96157.25;5070534;28;21081;-76
2023/03/17 08:41:17;;;;;;;4.43;3.47;;;;;;;4.66;100.00;96181.13;5082095;28;20920;-75
2023/03/17 08:43:45;;;;;;;5.10;3.40;;;;;;;4.44;100.00;96121.59;5090646;28;20490;-76
2023/03/17 08:46:18;;;;;;;3.73;3.10;;;;;;;4.24;100.00;96148.16;5079197;28;20492;-76
2023/03/17 08:48:47;;;;;;;4.43;3.47;;;;;;;4.71;100.00;96173.97;5071802;28;20477;-76
2023/03/17 08:51:14;;;;;;;3.97;3.60;;;;;;;5.05;100.00;96201.56;5070639;28;20489;-75
2023/03/17 08:53:45;;;;;;;3.40;3.10;;;;;;;5.25;100.00;96203.00;5073229;28;20452;-76
2023/03/17 08:56:12;;;;;;;3.73;3.37;;;;;;;5.24;100.00;96207.47;5070591;28;20893;-76
2023/03/17 08:58:42;;;;;;;5.97;2.63;;;;;;;5.03;94.90;96185.38;5057076;28;20420;-76
2023/03/17 09:01:09;;;;;;;3.57;3.27;;;;;;;5.17;96.52;96172.22;5084320;28;20482;-76
2023/03/17 09:03:38;;;;;;;5.00;3.03;;;;;;;5.58;95.79;96201.72;5083274;28;20452;-76
2023/03/17 09:06:06;;;;;;;3.13;2.83;;;;;;;5.52;94.79;96197.69;5072241;28;20452;-76
2023/03/17 09:08:36;;;;;;;3.30;2.63;;;;;;;5.52;90.85;96189.03;5084102;28;20447;-76
2023/03/17 09:11:04;;;;;;;4.73;2.90;;;;;;;5.53;90.29;96180.09;5070346;28;20439;-76
2023/03/17 09:13:32;;;;;;;3.60;3.00;;;;;;;5.74;90.63;96170.66;5070232;28;20646;-76
2023/03/17 09:16:00;;;;;;;2.73;2.53;;;;;;;5.18;86.73;96101.19;5070374;28;20445;-76
2023/03/17 09:18:27;;;;;;;2.60;2.40;;;;;;;5.74;86.86;96178.53;5053678;28;20531;-76
2023/03/17 09:20:53;;;;;;;2.30;2.10;;;;;;;5.73;85.18;96170.97;5069708;28;20486;-76
2023/03/17 09:23:22;;;;;;;3.80;2.40;;;;;;;5.73;85.65;96161.25;5071473;28;20534;-76
2023/03/17 09:25:48;;;;;;;3.73;2.23;;;;;;;5.93;84.36;96181.81;5053407;28;20433;-76
2023/03/17 09:28:17;;;;;;;2.40;2.20;;;;;;;5.99;83.73;96166.69;5081545;28;20496;-75
2023/03/17 09:30:45;;;;;;;2.97;2.47;;;;;;;6.15;82.18;96182.88;5071868;28;20543;-76
2023/03/17 09:33:12;;;;;;;3.47;2.53;;;;;;;6.28;82.78;96189.06;5071395;28;20452;-75
2023/03/17 09:35:39;;;;;;;3.40;2.57;;;;;;;6.19;83.60;96158.31;5053348;28;20444;-76
2023/03/17 09:38:07;;;;;;;2.60;2.30;;;;;;;6.41;84.06;96172.47;5082161;28;20485;-76
2023/03/17 09:40:51;;;;;;;2.57;2.37;;;;;;;6.67;81.98;96189.09;5084714;28;20464;-76
2023/03/17 09:43:31;;;;;;;3.43;2.87;;;;;;;6.78;82.22;96195.63;5069873;28;20495;-76
2023/03/17 09:46:10;;;;;;;4.27;2.70;;;;;;;6.56;80.10;96171.31;5069951;28;20443;-75
2023/03/17 09:49:02;;;;;;;2.93;2.30;;;;;;;6.70;79.62;96179.84;5070021;28;20412;-76
2023/03/17 09:51:31;;;;;;;2.60;1.90;;;;;;;6.83;79.03;96171.09;5051742;28;20495;-76
2023/03/17 09:54:02;;;;;;;5.90;2.60;;;;;;;6.86;79.03;96151.31;5053336;28;20548;-76
2023/03/17 09:56:35;;;;;;;2.70;2.17;;;;;;;7.13;78.87;96169.44;5053413;28;20433;-76
2023/03/17 09:59:06;;;;;;;2.90;2.00;;;;;;;7.08;77.66;96144.06;5066571;28;20437;-76
2023/03/17 10:01:33;;;;;;;2.57;2.03;;;;;;;7.30;77.76;96142.38;5075164;28;20432;-76
2023/03/17 10:04:01;;;;;;;3.10;2.37;;;;;;;7.52;78.17;96154.59;5085346;28;20830;-76
2023/03/17 10:06:39;;;;;;;2.07;1.53;;;;;;;7.84;80.73;96158.59;5074279;28;20828;-76
2023/03/17 10:09:40;;;;;;;3.07;2.40;;;;;;;7.65;75.80;96153.66;5073706;28;20790;-76
2023/03/17 10:12:24;;;;;;;2.90;2.30;;;;;;;7.92;77.27;96152.56;5046495;28;20526;-76
2023/03/17 10:15:05;;;;;;;3.60;2.13;;;;;;;7.72;74.90;96133.69;5062221;28;20970;-76
2023/03/17 10:17:40;;;;;;;3.33;2.47;;;;;;;8.12;76.04;96159.00;5086888;28;20932;-76
2023/03/17 10:20:12;;;;;;;2.87;1.93;;;;;;;7.94;74.18;96137.22;5070894;28;20466;-76
2023/03/17 10:22:45;;;;;;;2.30;1.97;;;;;;;7.82;74.05;96144.97;5074352;28;20430;-76
2023/03/17 10:25:13;;;;;;;3.03;2.43;;;;;;;8.28;76.50;96152.94;5073157;28;20463;-76
2023/03/17 10:27:43;;;;;;;6.97;1.80;;;;;;;8.43;74.43;96149.03;5074595;28;20539;-76
2023/03/17 10:30:19;;;;;;;3.37;2.47;;;;;;;8.11;73.05;96118.72;5073263;28;20873;-76
2023/03/17 10:32:47;;;;;;;3.20;2.03;;;;;;;8.30;74.00;96137.56;5060989;28;20456;-76
2023/03/17 10:35:15;;;;;;;3.03;2.23;;;;;;;8.03;73.38;96077.41;5072761;28;20476;-76
2023/03/17 10:37:45;;;;;;;4.27;1.90;;;;;;;8.60;73.85;96106.00;5074127;28;20523;-76
2023/03/17 10:40:24;;;;;;;3.00;1.80;;;;;;;8.59;72.73;96086.03;5086407;28;20450;-76
2023/03/17 10:42:55;;;;;;;2.00;1.70;;;;;;;8.60;71.78;96106.00;5072810;28;20447;-76
2023/03/17 10:45:31;;;;;;;3.87;2.30;;;;;;;8.92;72.56;96093.25;5078866;28;20438;-76
2023/03/17 10:48:01;;;;;;;3.40;2.00;;;;;;;9.39;72.26;96139.47;5062972;28;20471;-76
2023/03/17 10:50:31;;;;;;;6.30;2.03;;;;;;;8.73;70.85;96067.34;5059312;28;20440;-76
2023/03/17 10:52:59;;;;;;;2.67;2.43;;;;;;;9.15;71.40;96142.72;5074411;28;20436;-76
2023/03/17 10:55:30;;;;;;;3.00;2.00;;;;;;;9.02;70.68;96077.81;5086501;28;20797;-76
2023/03/17 10:58:00;;;;;;;1.93;1.83;;;;;;;9.38;70.86;96145.06;5073921;28;20451;-76
2023/03/17 11:00:32;;;;;;;2.47;1.77;;;;;;;9.38;69.39;96126.59;5085081;28;20424;-76
2023/03/17 11:03:08;;;;;;;2.10;2.00;;;;;;;9.50;69.30;96131.16;5072350;28;20452;-76
2023/03/17 11:05:36;;;;;;;2.83;2.20;;;;;;;9.51;69.70;96119.50;5072357;28;21085;-76
2023/03/17 11:08:18;;;;;;;1.63;1.53;;;;;;;9.69;69.64;96129.56;5072178;28;20499;-76
2023/03/17 11:10:45;;;;;;;2.13;1.53;;;;;;;9.75;68.56;96114.31;5052565;28;20510;-76
2023/03/17 11:13:15;;;;;;;2.50;1.77;;;;;;;9.69;68.17;96120.88;5055617;28;20866;-76
2023/03/17 11:15:52;;;;;;;2.80;1.60;;;;;;;9.95;69.77;96105.56;5072111;28;20867;-76
2023/03/17 11:18:26;;;;;;;2.10;1.70;;;;;;;10.04;69.48;96094.91;5072210;28;20507;-76
2023/03/17 11:21:17;;;;;;;2.10;1.90;;;;;;;10.42;69.49;96117.66;5070012;28;20450;-76
2023/03/17 11:23:49;;;;;;;3.20;1.90;;;;;;;10.25;67.52;96110.69;5052407;28;20484;-77
2023/03/17 11:26:20;;;;;;;5.97;2.60;;;;;;;10.65;70.29;96102.88;5063867;28;20445;-76
2023/03/17 11:28:56;;;;;;;2.13;1.77;;;;;;;10.58;68.64;96095.53;5068547;28;20428;-76
2023/03/17 11:31:28;;;;;;;2.60;2.40;;;;;;;10.77;70.17;96087.00;5071684;28;20443;-76
2023/03/17 11:34:04;;;;;;;3.20;2.30;;;;;;;10.60;68.87;96058.16;5071581;28;20517;-76